createdAt,value
2019-03-25T00:01:46.319Z,25.77
2019-03-25T00:04:20.442Z,25.48
2019-03-25T00:06:51.264Z,27.32
2019-03-25T00:09:23.012Z,25.90
2019-03-25T00:11:53.633Z,28.40
2019-03-25T00:14:24.307Z,23.98
2019-03-25T00:16:54.866Z,22.87
2019-03-25T00:19:25.600Z,20.70
2019-03-25T00:21:57.481Z,19.70
2019-03-25T00:24:38.322Z,21.47
2019-03-25T00:27:00.488Z,22.80
2019-03-25T00:29:31.169Z,20.72
2019-03-25T00:32:01.796Z,21.37
2019-03-25T00:34:32.367Z,19.33
2019-03-25T00:37:03.181Z,19.32
2019-03-25T00:39:36.654Z,18.07
2019-03-25T00:42:07.354Z,18.92
2019-03-25T00:44:38.083Z,17.90
2019-03-25T00:47:08.654Z,18.12
2019-03-25T00:49:39.367Z,20.23
2019-03-25T00:52:09.986Z,18.00
2019-03-25T00:54:49.612Z,17.50
2019-03-25T00:57:12.834Z,18.48
2019-03-25T00:59:43.421Z,17.48
2019-03-25T01:02:14.025Z,17.67
2019-03-25T01:04:44.881Z,18.50
2019-03-25T01:07:15.657Z,16.37
2019-03-25T01:09:46.941Z,17.80
2019-03-25T01:12:17.509Z,15.57
2019-03-25T01:14:49.480Z,16.47
2019-03-25T01:17:20.080Z,15.77
2019-03-25T01:19:50.704Z,16.05
2019-03-25T01:22:21.247Z,17.03
2019-03-25T01:25:07.527Z,15.98
2019-03-25T01:27:38.319Z,17.30
2019-03-25T01:30:09.550Z,16.00
2019-03-25T01:32:40.327Z,14.98
2019-03-25T01:35:10.988Z,15.10
2019-03-25T01:37:41.635Z,15.85
2019-03-25T01:40:13.026Z,16.97
2019-03-25T01:42:43.684Z,15.23
2019-03-25T01:45:14.694Z,14.50
2019-03-25T01:47:45.402Z,14.50
2019-03-25T01:50:16.147Z,14.68
2019-03-25T01:52:46.879Z,13.83
2019-03-25T01:55:17.608Z,14.83
2019-03-25T01:57:48.152Z,13.60
2019-03-25T02:00:20.380Z,13.32
2019-03-25T02:02:51.175Z,13.43
2019-03-25T02:05:21.745Z,15.80
2019-03-25T02:07:52.676Z,13.62
2019-03-25T02:10:23.161Z,13.03
2019-03-25T02:12:54.069Z,14.35
2019-03-25T02:15:24.695Z,14.85
2019-03-25T02:18:07.527Z,14.30
2019-03-25T02:20:38.050Z,14.50
2019-03-25T02:23:08.939Z,13.85
2019-03-25T02:25:39.795Z,13.70
2019-03-25T02:28:11.496Z,13.27
2019-03-25T02:30:42.033Z,14.30
2019-03-25T02:33:12.709Z,12.87
2019-03-25T02:35:44.252Z,13.50
2019-03-25T02:38:14.882Z,13.60
2019-03-25T02:40:45.547Z,14.93
2019-03-25T02:43:16.088Z,13.70
2019-03-25T02:45:46.652Z,13.77
2019-03-25T02:48:17.171Z,13.93
2019-03-25T02:50:47.911Z,14.73
2019-03-25T02:53:18.401Z,15.33
2019-03-25T02:55:49.203Z,13.40
2019-03-25T02:58:19.963Z,12.47
2019-03-25T03:00:50.583Z,14.47
2019-03-25T03:03:24.029Z,13.53
2019-03-25T03:05:54.707Z,14.53
2019-03-25T03:08:25.461Z,13.90
2019-03-25T03:10:57.023Z,14.17
2019-03-25T03:13:27.582Z,14.50
2019-03-25T03:15:58.207Z,13.83
2019-03-25T03:18:28.804Z,13.63
2019-03-25T03:20:59.364Z,13.43
2019-03-25T03:23:29.954Z,12.80
2019-03-25T03:26:00.798Z,13.43
2019-03-25T03:28:32.957Z,15.87
2019-03-25T03:31:03.654Z,14.45
2019-03-25T03:33:34.267Z,14.20
2019-03-25T03:36:05.119Z,14.33
2019-03-25T03:38:35.700Z,14.20
2019-03-25T03:41:06.663Z,14.20
2019-03-25T03:43:38.352Z,12.47
2019-03-25T03:46:09.140Z,12.70
2019-03-25T03:48:39.798Z,13.90
2019-03-25T03:51:11.558Z,14.07
2019-03-25T03:53:43.552Z,12.67
2019-03-25T03:56:14.691Z,13.40
2019-03-25T03:58:47.488Z,12.40
2019-03-25T04:01:18.327Z,12.83
2019-03-25T04:03:48.950Z,13.07
2019-03-25T04:06:20.820Z,13.57
2019-03-25T04:08:51.421Z,12.50
2019-03-25T04:11:24.473Z,12.77
2019-03-25T04:13:55.214Z,12.03
2019-03-25T04:16:25.913Z,13.22
2019-03-25T04:18:56.506Z,12.37
2019-03-25T04:21:27.129Z,14.23
2019-03-25T04:23:57.676Z,14.97
2019-03-25T04:26:29.565Z,13.37
2019-03-25T04:29:00.481Z,15.03
2019-03-25T04:31:31.088Z,14.73
2019-03-25T04:34:01.696Z,13.27
2019-03-25T04:36:32.309Z,14.45
2019-03-25T04:42:50.655Z,15.18
2019-03-25T04:45:08.720Z,14.20
2019-03-25T04:47:39.352Z,15.08
2019-03-25T04:50:09.980Z,14.67
2019-03-25T04:52:40.568Z,15.37
2019-03-25T04:55:11.491Z,13.73
2019-03-25T04:57:42.006Z,15.03
2019-03-25T05:00:14.600Z,15.37
2019-03-25T05:02:45.275Z,15.17
2019-03-25T05:05:15.907Z,13.43
2019-03-25T05:07:46.434Z,13.73
2019-03-25T05:10:17.128Z,17.15
2019-03-25T05:12:47.844Z,14.85
2019-03-25T05:15:19.659Z,14.20
2019-03-25T05:17:50.298Z,14.85
2019-03-25T05:20:21.148Z,13.55
2019-03-25T05:22:53.545Z,13.93
2019-03-25T05:25:24.182Z,11.87
2019-03-25T05:27:55.014Z,13.50
2019-03-25T05:30:26.814Z,12.30
2019-03-25T05:32:57.468Z,14.40
2019-03-25T05:35:28.194Z,13.80
2019-03-25T05:37:58.940Z,14.35
2019-03-25T05:40:30.727Z,14.55
2019-03-25T05:43:01.224Z,13.40
2019-03-25T05:45:32.970Z,13.38
2019-03-25T05:48:03.614Z,12.33
2019-03-25T05:50:34.128Z,12.68
2019-03-25T05:53:04.729Z,14.50
2019-03-25T05:55:35.269Z,12.20
2019-03-25T05:58:06.065Z,12.00
2019-03-25T06:00:38.182Z,12.40
2019-03-25T06:03:08.942Z,12.50
2019-03-25T06:05:40.626Z,11.85
2019-03-25T06:08:11.193Z,12.53
2019-03-25T06:10:41.948Z,13.75
2019-03-25T06:13:12.976Z,11.22
2019-03-25T06:15:43.610Z,9.48
2019-03-25T06:18:26.053Z,10.00
2019-03-25T06:20:56.568Z,10.23
2019-03-25T06:23:27.258Z,10.58
2019-03-25T06:25:57.770Z,9.75
2019-03-25T06:28:29.654Z,9.80
2019-03-25T06:31:00.734Z,10.68
2019-03-25T06:33:31.248Z,9.78
2019-03-25T06:36:01.853Z,11.40
2019-03-25T06:38:32.375Z,10.58
2019-03-25T06:41:03.005Z,11.07
2019-03-25T06:43:33.565Z,11.30
2019-03-25T06:46:04.250Z,10.68
2019-03-25T06:48:35.081Z,9.50
2019-03-25T06:51:05.729Z,9.80
2019-03-25T06:53:36.297Z,10.15
2019-03-25T06:56:06.966Z,11.35
2019-03-25T06:58:37.595Z,9.15
2019-03-25T07:01:08.430Z,9.38
2019-03-25T07:03:40.201Z,10.32
2019-03-25T07:06:10.745Z,10.03
2019-03-25T07:08:41.331Z,7.20
2019-03-25T07:11:12.419Z,8.30
2019-03-25T07:13:43.775Z,8.65
2019-03-25T07:16:14.558Z,8.00
2019-03-25T07:18:45.229Z,8.58
2019-03-25T07:21:15.957Z,8.18
2019-03-25T07:23:46.712Z,7.95
2019-03-25T07:26:17.440Z,7.97
2019-03-25T07:28:48.092Z,7.22
2019-03-25T07:31:18.727Z,7.33
2019-03-25T07:33:49.689Z,7.83
2019-03-25T07:36:20.257Z,6.25
2019-03-25T07:38:51.072Z,6.65
2019-03-25T07:41:21.791Z,6.97
2019-03-25T07:43:52.531Z,6.00
2019-03-25T07:46:26.659Z,6.08
2019-03-25T07:48:57.458Z,5.80
2019-03-25T07:51:28.077Z,5.65
2019-03-25T07:53:58.611Z,6.80
2019-03-25T07:56:29.290Z,6.03
2019-03-25T07:58:59.909Z,5.47
2019-03-25T08:01:32.262Z,6.55
2019-03-25T08:04:02.980Z,4.72
2019-03-25T08:06:33.879Z,3.98
2019-03-25T08:09:05.284Z,4.72
2019-03-25T08:11:36.110Z,4.40
2019-03-25T08:14:06.846Z,4.72
2019-03-25T08:16:37.691Z,5.33
2019-03-25T08:19:08.379Z,4.28
2019-03-25T08:21:39.075Z,4.42
2019-03-25T08:24:09.788Z,4.25
2019-03-25T08:26:42.712Z,4.15
2019-03-25T08:29:12.610Z,3.47
2019-03-25T08:31:43.479Z,3.67
2019-03-25T08:34:14.103Z,4.50
2019-03-25T08:36:44.851Z,4.85
2019-03-25T08:39:15.469Z,4.37
2019-03-25T08:41:46.050Z,5.28
2019-03-25T08:44:16.606Z,4.55
2019-03-25T08:46:47.311Z,4.28
2019-03-25T08:49:17.992Z,4.35
2019-03-25T08:51:48.690Z,3.80
2019-03-25T08:54:19.268Z,4.25
2019-03-25T08:56:49.941Z,3.45
2019-03-25T08:59:20.772Z,3.60
2019-03-25T09:01:51.605Z,4.53
2019-03-25T09:04:34.661Z,3.85
2019-03-25T09:07:07.761Z,3.72
2019-03-25T09:12:23.554Z,4.70
2019-03-25T09:14:54.363Z,3.87
2019-03-25T09:17:24.959Z,3.20
2019-03-25T09:19:55.552Z,4.12
2019-03-25T09:22:26.245Z,3.67
2019-03-25T09:24:56.949Z,3.12
2019-03-25T09:27:27.584Z,3.12
2019-03-25T09:29:58.286Z,4.20
2019-03-25T09:32:30.104Z,3.85
2019-03-25T09:35:00.689Z,3.77
2019-03-25T09:37:33.953Z,4.20
2019-03-25T09:40:06.502Z,4.53
2019-03-25T09:42:38.156Z,3.65
2019-03-25T09:45:09.531Z,3.77
2019-03-25T09:47:40.324Z,4.10
2019-03-25T09:50:13.088Z,3.83
2019-03-25T09:52:43.681Z,3.85
2019-03-25T09:55:16.689Z,3.87
2019-03-25T09:57:47.360Z,4.33
2019-03-25T10:00:19.687Z,4.92
2019-03-25T10:02:50.333Z,3.60
2019-03-25T10:05:21.484Z,4.97
2019-03-25T10:07:52.050Z,4.50
2019-03-25T10:10:22.783Z,3.85
2019-03-25T10:12:53.517Z,4.37
2019-03-25T10:15:24.306Z,4.08
2019-03-25T10:17:55.226Z,3.47
2019-03-25T10:20:25.892Z,3.20
2019-03-25T10:22:57.073Z,3.85
2019-03-25T10:25:27.784Z,3.55
2019-03-25T10:27:58.335Z,3.70
2019-03-25T10:30:29.463Z,3.85
2019-03-25T10:33:00.908Z,3.65
2019-03-25T10:35:33.297Z,3.20
2019-03-25T10:38:04.003Z,4.35
2019-03-25T10:40:34.740Z,3.67
2019-03-25T10:43:05.571Z,3.60
2019-03-25T10:45:37.447Z,2.92
2019-03-25T10:48:08.154Z,3.47
2019-03-25T10:50:39.004Z,3.62
2019-03-25T10:53:11.645Z,3.92
2019-03-25T10:55:48.588Z,3.67
2019-03-25T10:58:20.288Z,3.77
2019-03-25T11:00:51.023Z,3.80
2019-03-25T11:03:21.833Z,3.83
2019-03-25T11:05:52.981Z,3.40
2019-03-25T11:08:25.715Z,3.62
2019-03-25T11:10:56.324Z,4.37
2019-03-25T11:13:27.015Z,3.62
2019-03-25T11:15:57.860Z,3.70
2019-03-25T11:18:28.839Z,3.98
2019-03-25T11:20:59.623Z,4.70
2019-03-25T11:23:30.263Z,4.20
2019-03-25T11:26:01.127Z,3.62
2019-03-25T11:28:33.317Z,4.05
2019-03-25T11:31:04.124Z,4.37
2019-03-25T11:33:34.723Z,3.85
2019-03-25T11:36:05.990Z,3.72
2019-03-25T11:38:36.736Z,3.60
2019-03-25T11:41:07.547Z,4.08
2019-03-25T11:43:38.115Z,3.85
2019-03-25T11:46:08.872Z,5.70
2019-03-25T11:48:39.400Z,4.17
2019-03-25T11:51:10.171Z,4.15
2019-03-25T11:53:40.954Z,4.97
2019-03-25T11:56:11.698Z,4.30
2019-03-25T11:58:42.424Z,4.55
2019-03-25T12:01:13.502Z,3.83
2019-03-25T12:03:46.827Z,4.05
2019-03-25T12:06:17.857Z,3.65
2019-03-25T12:08:50.546Z,4.17
2019-03-25T12:11:23.605Z,3.77
2019-03-25T12:13:55.811Z,4.28
2019-03-25T12:16:26.720Z,3.42
2019-03-25T12:18:57.417Z,4.72
2019-03-25T12:21:29.916Z,3.75
2019-03-25T12:24:00.555Z,3.98
2019-03-25T12:26:31.329Z,4.33
2019-03-25T12:29:02.275Z,4.97
2019-03-25T12:31:33.641Z,3.87
2019-03-25T12:34:04.502Z,4.97
2019-03-25T12:36:35.124Z,4.47
2019-03-25T12:39:08.771Z,4.53
2019-03-25T12:41:39.416Z,4.78
2019-03-25T12:44:10.034Z,4.17
2019-03-25T12:46:40.642Z,3.65
2019-03-25T12:49:11.171Z,4.05
2019-03-25T12:51:42.230Z,3.75
2019-03-25T12:54:12.964Z,4.50
2019-03-25T12:56:45.074Z,4.55
2019-03-25T12:59:15.672Z,4.20
2019-03-25T13:01:52.804Z,4.08
2019-03-25T13:04:19.035Z,4.05
2019-03-25T13:06:52.296Z,3.87
2019-03-25T13:09:23.323Z,3.47
2019-03-25T13:11:54.197Z,4.17
2019-03-25T13:14:24.923Z,3.85
2019-03-25T13:16:55.620Z,4.10
2019-03-25T13:19:26.243Z,4.00
2019-03-25T13:21:56.763Z,3.77
2019-03-25T13:24:27.417Z,3.27
2019-03-25T13:26:57.954Z,3.95
2019-03-25T13:29:28.603Z,3.95
2019-03-25T13:31:59.152Z,4.95
2019-03-25T13:34:29.826Z,3.95
2019-03-25T13:37:00.572Z,4.62
2019-03-25T13:39:31.096Z,4.20
2019-03-25T13:42:01.752Z,4.45
2019-03-25T13:44:32.364Z,5.58
2019-03-25T13:47:02.868Z,5.50
2019-03-25T13:49:33.523Z,5.08
2019-03-25T13:52:04.013Z,5.58
2019-03-25T13:54:34.517Z,4.87
2019-03-25T13:57:05.269Z,5.62
2019-03-25T13:59:35.904Z,4.92
2019-03-25T14:02:06.552Z,5.00
2019-03-25T14:04:37.139Z,5.15
2019-03-25T14:07:07.855Z,4.90
2019-03-25T14:09:38.451Z,6.33
2019-03-25T14:12:09.272Z,6.05
2019-03-25T14:14:39.858Z,6.05
2019-03-25T14:17:22.865Z,6.58
2019-03-25T14:19:53.463Z,7.60
2019-03-25T14:22:24.040Z,6.05
2019-03-25T14:24:54.616Z,6.67
2019-03-25T14:27:25.440Z,5.53
2019-03-25T14:29:56.028Z,6.05
2019-03-25T14:32:26.770Z,6.20
2019-03-25T14:34:57.249Z,6.40
2019-03-25T14:37:27.833Z,6.35
2019-03-25T14:40:04.164Z,5.80
2019-03-25T14:42:34.779Z,6.22
2019-03-25T14:45:06.245Z,6.25
2019-03-25T14:47:36.944Z,6.58
2019-03-25T14:50:09.110Z,7.08
2019-03-25T14:52:39.645Z,7.40
2019-03-25T14:55:10.764Z,6.08
2019-03-25T14:57:41.545Z,7.00
2019-03-25T15:00:13.127Z,6.50
2019-03-25T15:02:43.873Z,4.70
2019-03-25T15:05:14.955Z,5.83
2019-03-25T15:07:45.382Z,5.95
2019-03-25T15:10:16.363Z,6.50
2019-03-25T15:12:47.078Z,4.75
2019-03-25T15:15:17.795Z,5.83
2019-03-25T15:17:48.481Z,5.12
2019-03-25T15:20:19.101Z,5.83
2019-03-25T15:22:49.766Z,5.12
2019-03-25T15:25:20.400Z,5.47
2019-03-25T15:27:51.011Z,6.50
2019-03-25T15:30:21.871Z,6.50
2019-03-25T15:32:52.481Z,6.05
2019-03-25T15:35:23.234Z,6.67
2019-03-25T15:37:53.859Z,6.78
2019-03-25T15:40:24.620Z,6.67
2019-03-25T15:42:55.219Z,7.67
2019-03-25T15:45:27.705Z,7.72
2019-03-25T15:47:58.542Z,7.55
2019-03-25T15:50:29.140Z,8.53
2019-03-25T15:53:00.220Z,7.80
2019-03-25T15:55:30.769Z,8.53
2019-03-25T15:58:01.379Z,9.40
2019-03-25T16:00:33.989Z,9.40
2019-03-25T16:03:04.863Z,9.48
2019-03-25T16:05:35.504Z,8.33
2019-03-25T16:08:07.091Z,8.40
2019-03-25T16:10:37.725Z,8.40
2019-03-25T16:13:08.427Z,8.43
2019-03-25T16:15:40.769Z,8.88
2019-03-25T16:18:18.603Z,8.58
2019-03-25T16:20:49.168Z,8.15
2019-03-25T16:23:19.833Z,8.88
2019-03-25T16:25:50.673Z,9.95
2019-03-25T16:28:21.338Z,8.48
2019-03-25T16:30:58.659Z,9.60
2019-03-25T16:33:41.013Z,8.60
2019-03-25T16:36:13.566Z,8.90
2019-03-25T16:38:44.110Z,9.30
2019-03-25T16:41:14.980Z,8.78
2019-03-25T16:43:50.960Z,9.40
2019-03-25T16:46:26.302Z,9.60
2019-03-25T16:48:57.165Z,10.55
2019-03-25T16:51:40.632Z,11.15
2019-03-25T16:54:16.721Z,11.03
2019-03-25T16:57:13.620Z,11.30
2019-03-25T17:00:04.236Z,11.70
2019-03-25T17:02:43.661Z,10.70
2019-03-25T17:05:32.529Z,10.43
2019-03-25T17:08:17.867Z,9.35
2019-03-25T17:10:59.230Z,11.93
2019-03-25T17:13:42.911Z,11.75
2019-03-25T17:16:26.020Z,15.10
2019-03-25T17:19:07.325Z,16.02
2019-03-25T17:21:57.550Z,17.40
2019-03-25T17:24:54.603Z,16.48
2019-03-25T17:27:55.651Z,14.40
2019-03-25T17:30:29.718Z,11.95
2019-03-25T17:33:04.456Z,10.65
2019-03-25T17:35:51.348Z,8.38
2019-03-25T17:38:23.764Z,6.00
2019-03-25T17:40:55.075Z,6.85
2019-03-25T17:43:48.387Z,6.58
2019-03-25T17:46:24.327Z,7.35
2019-03-25T17:48:57.454Z,7.08
2019-03-25T17:52:16.405Z,6.73
2019-03-25T17:54:55.987Z,7.17
2019-03-25T17:57:30.611Z,6.63
2019-03-25T18:00:03.865Z,8.37
2019-03-25T18:02:37.587Z,8.48
2019-03-25T18:05:09.894Z,8.00
2019-03-25T18:07:41.257Z,8.75
2019-03-25T18:10:13.085Z,9.23
2019-03-25T18:12:47.372Z,10.50
2019-03-25T18:15:32.621Z,14.47
2019-03-25T18:18:06.116Z,16.75
2019-03-25T18:20:36.738Z,18.00
2019-03-25T18:23:07.955Z,15.50
2019-03-25T18:25:39.480Z,14.73
2019-03-25T18:28:10.180Z,17.52
2019-03-25T18:30:40.915Z,19.10
2019-03-25T18:33:11.572Z,19.25
2019-03-25T18:35:42.209Z,16.80
2019-03-25T18:38:12.725Z,16.37
2019-03-25T18:40:45.293Z,14.45
2019-03-25T18:43:16.822Z,14.43
2019-03-25T18:45:47.560Z,12.65
2019-03-25T18:48:18.089Z,13.85
2019-03-25T18:50:48.812Z,12.25
2019-03-25T18:53:19.882Z,13.43
2019-03-25T18:55:51.629Z,13.55
2019-03-25T18:58:22.353Z,12.68
2019-03-25T19:00:53.102Z,13.13
2019-03-25T19:03:23.846Z,14.50
2019-03-25T19:05:54.527Z,15.35
2019-03-25T19:08:29.765Z,13.83
2019-03-25T19:11:14.906Z,16.12
2019-03-25T19:14:13.282Z,13.53
2019-03-25T19:17:26.369Z,13.43
2019-03-25T19:20:16.315Z,13.40
2019-03-25T19:22:48.073Z,13.58
2019-03-25T19:25:20.068Z,11.27
2019-03-25T19:27:50.850Z,10.43
2019-03-25T19:30:21.469Z,12.40
2019-03-25T19:32:52.043Z,12.63
2019-03-25T19:36:23.388Z,13.17
2019-03-25T19:40:24.876Z,17.37
2019-03-25T19:44:16.410Z,14.65
2019-03-25T19:47:53.856Z,16.07
2019-03-25T19:51:48.934Z,14.67
2019-03-25T19:58:46.221Z,17.80
2019-03-25T20:01:17.023Z,20.60
2019-03-25T20:03:49.160Z,20.47
2019-03-25T20:06:26.021Z,21.27
2019-03-25T20:08:52.294Z,20.20
2019-03-25T20:11:23.134Z,20.57
2019-03-25T20:13:53.963Z,21.17
2019-03-25T20:16:24.763Z,20.10
2019-03-25T20:18:55.611Z,22.63
2019-03-25T20:21:26.400Z,23.20
2019-03-25T20:23:57.137Z,19.50
2019-03-25T20:26:29.842Z,18.73
2019-03-25T20:29:00.554Z,20.40
2019-03-25T20:31:31.181Z,21.63
2019-03-25T20:34:11.029Z,20.90
2019-03-25T20:36:34.332Z,20.93
2019-03-25T20:39:07.675Z,20.73
2019-03-25T20:41:38.518Z,24.37
2019-03-25T20:44:10.853Z,19.50
2019-03-25T20:46:41.420Z,20.13
2019-03-25T20:49:12.155Z,20.73
2019-03-25T20:51:43.005Z,18.23
2019-03-25T20:54:13.703Z,19.60
2019-03-25T20:56:44.634Z,19.13
2019-03-25T20:59:15.685Z,17.87
2019-03-25T21:01:46.403Z,26.03
2019-03-25T21:04:17.317Z,21.97
2019-03-25T21:06:48.018Z,21.27
2019-03-25T21:09:18.916Z,21.00
2019-03-25T21:11:49.678Z,20.93
2019-03-25T21:14:20.392Z,20.53
2019-03-25T21:16:51.645Z,19.50
2019-03-25T21:19:24.017Z,20.93
2019-03-25T21:21:54.726Z,21.33
2019-03-25T21:24:25.395Z,23.47
2019-03-25T21:26:56.234Z,27.03
2019-03-25T21:29:26.866Z,23.80
2019-03-25T21:31:57.511Z,22.57
2019-03-25T21:34:28.286Z,24.97
2019-03-25T21:36:58.907Z,24.23
2019-03-25T21:39:29.718Z,29.30
2019-03-25T21:42:12.179Z,31.37
2019-03-25T21:44:42.863Z,33.83
2019-03-25T21:47:13.794Z,35.13
2019-03-25T21:49:44.472Z,36.73
2019-03-25T21:52:15.049Z,38.23
2019-03-25T21:54:45.770Z,37.80
2019-03-25T21:57:16.623Z,37.83
2019-03-25T21:59:47.394Z,39.50
2019-03-25T22:02:18.138Z,38.37
2019-03-25T22:04:49.827Z,37.07
2019-03-25T22:07:20.589Z,35.20
2019-03-25T22:09:51.304Z,33.33
2019-03-25T22:12:23.206Z,34.10
2019-03-25T22:14:53.780Z,33.67
2019-03-25T22:17:24.325Z,32.90
2019-03-25T22:19:55.031Z,32.10
2019-03-25T22:22:25.559Z,32.30
2019-03-25T22:24:56.137Z,32.97
2019-03-25T22:27:26.786Z,33.23
2019-03-25T22:29:57.520Z,30.07
2019-03-25T22:32:28.190Z,29.67
2019-03-25T22:34:58.823Z,27.63
2019-03-25T22:37:29.511Z,25.80
2019-03-25T22:40:00.342Z,22.13
2019-03-25T22:42:31.937Z,22.40
2019-03-25T22:45:02.463Z,21.40
2019-03-25T22:47:33.131Z,19.57
2019-03-25T22:50:04.174Z,19.73
2019-03-25T22:52:34.829Z,18.10
2019-03-25T22:55:06.966Z,19.53
2019-03-25T22:57:37.456Z,18.37
2019-03-25T23:00:08.770Z,19.07
2019-03-25T23:02:39.923Z,19.00
2019-03-25T23:05:11.076Z,18.03
2019-03-25T23:07:41.631Z,16.97
2019-03-25T23:10:12.337Z,16.87
2019-03-25T23:12:42.831Z,15.83
2019-03-25T23:15:13.610Z,17.00
2019-03-25T23:17:44.139Z,17.00
2019-03-25T23:20:14.826Z,16.07
2019-03-25T23:22:45.491Z,17.70
2019-03-25T23:25:16.036Z,17.77
2019-03-25T23:27:47.932Z,17.37
2019-03-25T23:30:18.626Z,15.27
2019-03-25T23:32:49.305Z,16.30
2019-03-25T23:35:19.952Z,14.57
2019-03-25T23:37:50.791Z,15.53
2019-03-25T23:40:21.964Z,14.33
2019-03-25T23:42:53.789Z,15.23
2019-03-25T23:45:24.566Z,13.40
2019-03-25T23:47:55.225Z,12.47
2019-03-25T23:50:26.001Z,12.80
2019-03-25T23:52:56.573Z,12.47
2019-03-25T23:55:27.205Z,12.17
2019-03-25T23:57:57.769Z,13.43
